Time;durP1;ratioP1;P1;durP2;ratioP2;P2;SDS_P1;SDS_P2;PMS_P1;PMS_P2;Temp;Humidity;BMP_temperature;BMP_pressure;BME280_temperature;BME280_humidity;BME280_pressure;Samples;Min_cycle;Max_cycle;Signal;HPM_P1;HPM_P2
2022/02/27 00:00:07;;;;;;;4.73;3.90;;;4.60;78.10;;;;;;4989355;28;20268;-73
2022/02/27 00:02:33;;;;;;;2.97;2.70;;;4.50;78.10;;;;;;5000082;28;20208;-73
2022/02/27 00:04:58;;;;;;;3.63;3.17;;;4.50;78.10;;;;;;4993718;28;20193;-73
2022/02/27 00:07:24;;;;;;;5.73;3.53;;;4.50;78.20;;;;;;5003158;28;20679;-73
2022/02/27 00:09:50;;;;;;;5.37;3.27;;;4.40;78.30;;;;;;4994973;28;20284;-72
2022/02/27 00:12:15;;;;;;;5.80;3.43;;;4.40;78.30;;;;;;4997822;28;20185;-73
2022/02/27 00:14:41;;;;;;;3.93;3.60;;;4.40;78.30;;;;;;4995100;28;20284;-73
2022/02/27 00:17:07;;;;;;;4.57;2.80;;;4.30;78.40;;;;;;4997881;28;20213;-74
2022/02/27 00:19:33;;;;;;;5.97;3.87;;;4.30;78.70;;;;;;4999717;28;20182;-73
2022/02/27 00:21:59;;;;;;;3.57;3.23;;;4.30;78.70;;;;;;4997769;28;20181;-73
2022/02/27 00:24:25;;;;;;;5.17;2.93;;;4.30;78.70;;;;;;5002738;28;20183;-72
2022/02/27 00:26:51;;;;;;;3.83;3.20;;;4.40;78.50;;;;;;4999626;28;20184;-73
2022/02/27 00:29:16;;;;;;;6.63;3.00;;;4.40;78.40;;;;;;4996675;28;20182;-72
2022/02/27 00:31:42;;;;;;;4.17;3.83;;;4.40;78.50;;;;;;4999900;28;20191;-73
2022/02/27 00:34:08;;;;;;;5.97;3.47;;;4.50;78.40;;;;;;4998326;28;20284;-73
2022/02/27 00:36:34;;;;;;;2.87;2.67;;;4.40;78.20;;;;;;4999491;28;20225;-72
2022/02/27 00:39:00;;;;;;;7.80;3.73;;;4.40;78.20;;;;;;4999135;28;20180;-73
2022/02/27 00:41:25;;;;;;;2.87;2.60;;;4.40;78.10;;;;;;5000704;28;20188;-72
2022/02/27 00:43:51;;;;;;;5.90;2.87;;;4.40;78.30;;;;;;4994411;28;20849;-73
2022/02/27 00:46:17;;;;;;;6.10;3.47;;;4.40;78.30;;;;;;4999423;28;20587;-72
2022/02/27 00:48:43;;;;;;;3.87;3.43;;;4.40;78.30;;;;;;4998206;28;20182;-72
2022/02/27 00:51:09;;;;;;;5.23;3.80;;;4.30;78.50;;;;;;4998228;28;20185;-73
2022/02/27 00:53:34;;;;;;;6.97;3.47;;;4.40;78.50;;;;;;4996133;28;20626;-73
2022/02/27 00:56:00;;;;;;;4.63;3.00;;;4.30;78.50;;;;;;4993503;28;20217;-71
2022/02/27 00:58:26;;;;;;;6.60;3.83;;;4.30;78.50;;;;;;4997016;28;20200;-73
2022/02/27 01:00:52;;;;;;;3.33;3.03;;;4.40;78.20;;;;;;4995811;28;20189;-71
2022/02/27 01:03:17;;;;;;;7.03;3.47;;;4.40;78.20;;;;;;4991426;28;20594;-73
2022/02/27 01:05:43;;;;;;;3.63;3.40;;;4.50;78.10;;;;;;5000811;28;20185;-73
2022/02/27 01:08:09;;;;;;;4.10;3.17;;;4.50;77.70;;;;;;4995048;28;20187;-72
2022/02/27 01:10:34;;;;;;;8.03;3.53;;;4.50;77.70;;;;;;4996556;28;20569;-73
2022/02/27 01:13:00;;;;;;;5.33;4.37;;;4.50;77.80;;;;;;4997126;28;20181;-73
2022/02/27 01:15:26;;;;;;;7.00;3.57;;;4.50;77.80;;;;;;4997327;28;20208;-73
2022/02/27 01:17:51;;;;;;;5.83;3.83;;;4.60;77.80;;;;;;4994904;28;20895;-72
2022/02/27 01:20:17;;;;;;;3.73;3.40;;;4.50;78.00;;;;;;5000978;28;20186;-73
2022/02/27 01:22:43;;;;;;;5.03;3.90;;;4.40;78.30;;;;;;4997170;28;20223;-72
2022/02/27 01:25:10;;;;;;;3.03;2.70;;;4.40;78.30;;;;;;4997308;28;20242;-73
2022/02/27 01:27:35;;;;;;;6.37;3.37;;;4.40;78.40;;;;;;5000112;28;20241;-73
2022/02/27 01:30:02;;;;;;;4.17;3.80;;;4.40;78.70;;;;;;4997012;28;20280;-73
2022/02/27 01:32:28;;;;;;;7.00;4.23;;;4.40;78.60;;;;;;4995835;28;20193;-73
2022/02/27 01:34:54;;;;;;;6.57;4.60;;;4.40;78.60;;;;;;4995120;28;20209;-73
2022/02/27 01:37:19;;;;;;;5.23;4.77;;;4.40;78.70;;;;;;4996245;28;20257;-74
2022/02/27 01:39:45;;;;;;;5.17;3.93;;;4.40;78.70;;;;;;4993128;28;20780;-73
2022/02/27 01:42:15;;;;;;;8.93;5.40;;;4.40;78.80;;;;;;4997216;28;20193;-72
2022/02/27 01:44:42;;;;;;;8.63;4.80;;;4.30;78.80;;;;;;4997310;28;20259;-72
2022/02/27 01:47:11;;;;;;;9.83;4.70;;;4.20;79.30;;;;;;4997669;28;20193;-73
2022/02/27 01:49:39;;;;;;;4.83;3.93;;;4.30;79.30;;;;;;4995745;28;20280;-73
2022/02/27 01:52:06;;;;;;;5.43;4.87;;;4.20;79.30;;;;;;4996624;28;20243;-72
2022/02/27 01:54:32;;;;;;;5.00;4.47;;;4.20;79.30;;;;;;5001987;28;20622;-73
2022/02/27 01:56:59;;;;;;;4.57;4.13;;;4.20;79.30;;;;;;4992771;28;20178;-72
2022/02/27 01:59:25;;;;;;;6.40;4.17;;;4.20;79.50;;;;;;4990560;28;20182;-73
2022/02/27 02:01:50;;;;;;;4.40;3.77;;;4.20;79.40;;;;;;4998403;28;20277;-72
2022/02/27 02:04:16;;;;;;;4.03;3.60;;;4.30;79.30;;;;;;4997835;28;21076;-73
2022/02/27 02:06:42;;;;;;;8.33;4.53;;;4.30;79.10;;;;;;4996723;28;20192;-73
2022/02/27 02:09:08;;;;;;;3.63;3.33;;;4.40;79.00;;;;;;4996327;28;20209;-73
2022/02/27 02:11:36;;;;;;;4.00;3.63;;;4.30;79.00;;;;;;4992841;28;20717;-72
2022/02/27 02:14:03;;;;;;;6.13;4.23;;;4.30;79.10;;;;;;4999207;28;20196;-73
2022/02/27 02:16:40;;;;;;;5.30;3.30;;;4.30;79.10;;;;;;4993484;28;20226;-73
2022/02/27 02:19:06;;;;;;;6.63;3.87;;;4.30;79.00;;;;;;4991170;28;20181;-73
2022/02/27 02:21:40;;;;;;;5.03;3.80;;;4.30;78.80;;;;;;4998173;28;20588;-73
2022/02/27 02:24:07;;;;;;;3.73;3.17;;;4.30;78.80;;;;;;4999066;28;20180;-72
2022/02/27 02:26:35;;;;;;;4.17;3.53;;;4.30;78.80;;;;;;4992714;28;20280;-72
2022/02/27 02:29:01;;;;;;;5.00;3.00;;;4.30;78.80;;;;;;4993893;28;20177;-73
2022/02/27 02:31:26;;;;;;;3.53;3.23;;;4.30;78.60;;;;;;4996697;28;20192;-73
2022/02/27 02:33:52;;;;;;;6.13;3.87;;;4.30;78.60;;;;;;4997896;28;20663;-72
2022/02/27 02:36:18;;;;;;;3.70;3.03;;;4.30;78.50;;;;;;4996350;28;20217;-72
2022/02/27 02:38:43;;;;;;;5.87;3.50;;;4.20;78.50;;;;;;4995712;28;20184;-72
2022/02/27 02:41:09;;;;;;;6.77;2.93;;;4.20;78.80;;;;;;4994542;28;20786;-72
2022/02/27 02:43:35;;;;;;;3.13;2.90;;;4.10;78.50;;;;;;4991199;28;20180;-72
2022/02/27 02:46:01;;;;;;;6.17;2.97;;;4.10;78.60;;;;;;4993684;28;20300;-73
2022/02/27 02:48:26;;;;;;;4.00;3.50;;;4.00;78.70;;;;;;4992562;28;20667;-72
2022/02/27 02:50:52;;;;;;;3.67;3.37;;;4.00;78.80;;;;;;4991347;28;20185;-73
2022/02/27 02:53:18;;;;;;;9.80;3.97;;;4.00;79.10;;;;;;4994071;28;20185;-73
2022/02/27 02:55:44;;;;;;;4.03;3.67;;;4.00;78.90;;;;;;4992390;28;20732;-72
2022/02/27 02:58:09;;;;;;;3.47;3.20;;;4.00;79.00;;;;;;4994485;28;20256;-73
2022/02/27 03:00:35;;;;;;;3.13;2.93;;;4.00;79.10;;;;;;4996205;28;20177;-72
2022/02/27 03:03:01;;;;;;;5.23;3.30;;;4.00;79.00;;;;;;4995441;28;20717;-72
2022/02/27 03:05:26;;;;;;;5.57;3.63;;;4.00;79.20;;;;;;4995915;28;20188;-73
2022/02/27 03:07:52;;;;;;;3.47;3.00;;;4.00;79.20;;;;;;4993439;28;20184;-73
2022/02/27 03:10:18;;;;;;;6.57;3.83;;;4.00;79.20;;;;;;4994741;28;20193;-73
2022/02/27 03:12:43;;;;;;;5.87;4.00;;;4.00;79.40;;;;;;4995349;28;20185;-72
2022/02/27 03:15:09;;;;;;;4.87;3.70;;;3.90;79.50;;;;;;4995218;28;20255;-73
2022/02/27 03:17:35;;;;;;;3.20;3.00;;;3.90;79.60;;;;;;4993557;28;20223;-72
2022/02/27 03:20:02;;;;;;;4.50;4.03;;;3.90;79.60;;;;;;4991939;28;20253;-73
2022/02/27 03:22:28;;;;;;;4.43;2.97;;;3.90;80.00;;;;;;4993288;28;20273;-72
2022/02/27 03:24:54;;;;;;;3.83;3.30;;;4.00;79.80;;;;;;4992451;28;20193;-73
2022/02/27 03:27:19;;;;;;;4.53;3.80;;;4.00;79.60;;;;;;4994602;28;20184;-72
2022/02/27 03:29:45;;;;;;;2.83;2.73;;;4.00;79.90;;;;;;4993941;28;20189;-73
2022/02/27 03:32:11;;;;;;;6.80;3.93;;;4.00;79.90;;;;;;4997681;28;20675;-74
2022/02/27 03:34:37;;;;;;;6.47;3.63;;;4.00;80.30;;;;;;4997378;28;20181;-73
2022/02/27 03:37:04;;;;;;;6.23;4.07;;;3.90;80.40;;;;;;4993496;28;20181;-73
2022/02/27 03:39:30;;;;;;;5.37;3.57;;;3.90;80.60;;;;;;4999893;28;20273;-72
2022/02/27 03:41:56;;;;;;;5.40;3.13;;;3.90;80.80;;;;;;4997481;28;20267;-73
2022/02/27 03:44:21;;;;;;;5.70;3.50;;;4.00;80.70;;;;;;4996151;28;20267;-73
2022/02/27 03:46:47;;;;;;;3.43;3.13;;;3.90;81.30;;;;;;4995566;28;20208;-73
2022/02/27 03:49:13;;;;;;;5.03;3.33;;;3.90;81.70;;;;;;4999136;28;20659;-72
2022/02/27 03:51:39;;;;;;;5.80;3.60;;;3.90;81.70;;;;;;4997922;28;20197;-72
2022/02/27 03:54:05;;;;;;;6.17;3.33;;;4.00;81.70;;;;;;4992273;28;20188;-72
2022/02/27 03:56:31;;;;;;;4.90;3.43;;;4.00;81.90;;;;;;4996749;28;20294;-73
2022/02/27 03:58:56;;;;;;;3.67;3.33;;;3.90;82.10;;;;;;4994885;28;21024;-72
2022/02/27 04:01:23;;;;;;;4.57;3.07;;;3.80;82.70;;;;;;4997120;28;20217;-73
2022/02/27 04:03:50;;;;;;;5.00;3.50;;;3.80;83.30;;;;;;5001113;28;21010;-72
2022/02/27 04:06:15;;;;;;;3.40;3.10;;;3.90;83.50;;;;;;4997344;28;20181;-72
2022/02/27 04:08:41;;;;;;;5.10;4.17;;;3.90;83.60;;;;;;4998521;28;20193;-72
2022/02/27 04:11:07;;;;;;;3.93;2.90;;;3.90;83.70;;;;;;4994676;28;20597;-72
2022/02/27 04:13:33;;;;;;;5.50;3.93;;;3.90;84.10;;;;;;5002281;28;20187;-72
2022/02/27 04:16:00;;;;;;;6.00;3.47;;;3.80;84.40;;;;;;4999932;28;20209;-72
2022/02/27 04:18:25;;;;;;;3.50;3.20;;;3.80;84.50;;;;;;4995516;28;20181;-72
2022/02/27 04:20:51;;;;;;;4.43;3.43;;;3.70;84.60;;;;;;5000392;28;20575;-72
2022/02/27 04:23:17;;;;;;;4.57;4.17;;;3.70;84.80;;;;;;4997821;28;20182;-72
2022/02/27 04:25:42;;;;;;;6.60;4.50;;;3.60;84.80;;;;;;4997439;28;20185;-73
2022/02/27 04:28:08;;;;;;;3.67;3.37;;;3.70;84.90;;;;;;4994341;28;20231;-74
2022/02/27 04:30:34;;;;;;;5.70;3.47;;;3.70;84.90;;;;;;4997411;28;20188;-74
2022/02/27 04:33:00;;;;;;;5.20;3.30;;;3.70;84.80;;;;;;4996708;28;20193;-73
2022/02/27 04:35:25;;;;;;;4.33;3.70;;;3.70;84.80;;;;;;4994836;28;20727;-72
2022/02/27 04:37:51;;;;;;;3.33;3.13;;;3.80;84.80;;;;;;4995217;28;20767;-74
2022/02/27 04:40:17;;;;;;;13.17;3.87;;;3.80;84.60;;;;;;4994205;28;20181;-73
2022/02/27 04:42:43;;;;;;;6.20;4.27;;;3.80;84.40;;;;;;4993475;28;20185;-74
2022/02/27 04:45:09;;;;;;;3.67;3.03;;;3.80;84.70;;;;;;4998455;28;20221;-74
2022/02/27 04:47:36;;;;;;;14.50;3.87;;;3.70;85.00;;;;;;4996010;28;20192;-72
2022/02/27 04:50:03;;;;;;;4.27;3.87;;;3.70;84.80;;;;;;4998223;28;20268;-72
2022/02/27 04:52:29;;;;;;;4.87;4.30;;;3.80;85.00;;;;;;4997853;28;20204;-73
2022/02/27 04:54:55;;;;;;;5.07;3.43;;;3.80;85.20;;;;;;4997047;28;20220;-74
2022/02/27 04:57:21;;;;;;;2.73;2.33;;;3.70;85.40;;;;;;4995745;28;20609;-74
2022/02/27 04:59:46;;;;;;;9.10;4.60;;;3.70;85.60;;;;;;4995451;28;20178;-74
2022/02/27 05:02:12;;;;;;;4.40;3.97;;;3.80;85.90;;;;;;4995937;28;20655;-74
2022/02/27 05:04:38;;;;;;;4.77;4.13;;;3.80;86.10;;;;;;5001298;28;20185;-73
2022/02/27 05:07:04;;;;;;;7.50;4.30;;;3.80;86.30;;;;;;4993190;28;20216;-73
2022/02/27 05:09:31;;;;;;;6.77;4.77;;;3.80;86.70;;;;;;4994058;28;20192;-74
2022/02/27 05:11:57;;;;;;;4.83;4.07;;;3.70;87.70;;;;;;4995940;28;20211;-74
2022/02/27 05:14:22;;;;;;;5.50;4.33;;;3.70;87.90;;;;;;4999184;28;20662;-74
2022/02/27 05:16:48;;;;;;;5.50;4.17;;;3.60;88.70;;;;;;4992972;28;20178;-74
2022/02/27 05:19:14;;;;;;;5.10;3.40;;;3.40;89.50;;;;;;4995770;28;20810;-73
2022/02/27 05:21:40;;;;;;;4.20;3.83;;;3.30;90.40;;;;;;4996158;28;20185;-73
2022/02/27 05:24:06;;;;;;;4.60;3.67;;;3.20;90.90;;;;;;4997130;28;20193;-74
2022/02/27 05:26:32;;;;;;;9.30;5.03;;;3.20;91.50;;;;;;4994267;28;20618;-74
2022/02/27 05:28:58;;;;;;;4.40;3.60;;;3.20;91.80;;;;;;4995212;28;20664;-72
2022/02/27 05:31:24;;;;;;;5.47;3.80;;;3.10;92.40;;;;;;4995157;28;20268;-72
2022/02/27 05:33:50;;;;;;;3.50;3.23;;;3.10;93.00;;;;;;4996143;28;20193;-73
2022/02/27 05:36:16;;;;;;;5.53;3.90;;;3.00;93.60;;;;;;4993560;28;20201;-73
2022/02/27 05:38:42;;;;;;;7.33;3.77;;;2.90;93.70;;;;;;4992590;28;20232;-73
2022/02/27 05:41:08;;;;;;;9.30;2.87;;;2.90;94.00;;;;;;4991820;28;20182;-73
2022/02/27 05:43:34;;;;;;;3.23;2.97;;;2.90;94.30;;;;;;4996913;28;20988;-72
2022/02/27 05:46:00;;;;;;;3.47;3.17;;;2.90;94.10;;;;;;4991899;28;20228;-74
2022/02/27 05:48:25;;;;;;;4.37;3.00;;;2.90;94.30;;;;;;5000427;28;20256;-73
2022/02/27 05:50:51;;;;;;;5.30;3.67;;;2.80;94.70;;;;;;4992302;28;20205;-73
2022/02/27 05:53:17;;;;;;;5.20;3.20;;;2.80;94.90;;;;;;5009304;28;20197;-73
2022/02/27 05:55:43;;;;;;;3.70;3.40;;;2.70;94.80;;;;;;4994155;28;20256;-72
2022/02/27 05:58:09;;;;;;;3.67;3.37;;;2.70;95.40;;;;;;4991907;28;20185;-72
2022/02/27 06:00:34;;;;;;;5.03;3.30;;;2.70;95.70;;;;;;4994060;28;20185;-73
2022/02/27 06:03:00;;;;;;;6.23;3.80;;;2.70;95.40;;;;;;4996205;28;20195;-73
2022/02/27 06:05:26;;;;;;;4.13;3.00;;;2.70;95.50;;;;;;4992641;28;20296;-74
2022/02/27 06:07:52;;;;;;;4.17;3.07;;;2.70;95.70;;;;;;4998194;28;20654;-73
2022/02/27 06:10:18;;;;;;;4.43;4.07;;;2.70;95.60;;;;;;4998056;28;20766;-73
2022/02/27 06:12:48;;;;;;;3.50;3.27;;;2.70;95.80;;;;;;4993157;28;20204;-73
2022/02/27 06:15:14;;;;;;;3.47;3.17;;;2.60;95.90;;;;;;4991169;28;20178;-73
2022/02/27 06:17:40;;;;;;;3.40;3.13;;;2.60;96.10;;;;;;4998724;28;20193;-74
2022/02/27 06:20:07;;;;;;;5.23;3.33;;;2.60;96.10;;;;;;4996210;28;20199;-72
2022/02/27 06:22:33;;;;;;;2.87;2.57;;;2.60;96.30;;;;;;4992690;28;20732;-72
2022/02/27 06:24:58;;;;;;;3.73;3.07;;;2.60;96.50;;;;;;4996631;28;20201;-73
2022/02/27 06:27:24;;;;;;;3.53;2.40;;;2.60;96.70;;;;;;4994749;28;20177;-72
2022/02/27 06:29:51;;;;;;;6.73;3.33;;;2.60;96.60;;;;;;4998057;28;20762;-73
2022/02/27 06:32:17;;;;;;;4.30;3.20;;;2.70;96.60;;;;;;4994408;28;20585;-72
2022/02/27 06:34:43;;;;;;;3.60;3.17;;;2.70;96.50;;;;;;4993580;28;20192;-73
2022/02/27 06:37:08;;;;;;;3.83;3.53;;;2.70;96.50;;;;;;4996699;28;20268;-73
2022/02/27 06:39:34;;;;;;;3.10;2.80;;;2.70;96.40;;;;;;4995026;28;20231;-72
2022/02/27 06:42:01;;;;;;;2.47;2.27;;;2.70;96.40;;;;;;4993709;28;20196;-73
2022/02/27 06:44:27;;;;;;;4.30;2.77;;;2.70;96.50;;;;;;4994982;28;20563;-73
2022/02/27 06:46:52;;;;;;;5.20;3.00;;;2.70;96.40;;;;;;4995873;28;20197;-73
2022/02/27 06:49:18;;;;;;;4.17;2.87;;;2.70;96.40;;;;;;4994465;28;20177;-73
2022/02/27 06:51:44;;;;;;;6.63;2.93;;;2.70;96.20;;;;;;4994858;28;20254;-72
2022/02/27 06:54:09;;;;;;;3.20;3.00;;;2.80;95.90;;;;;;4996275;28;20216;-72
2022/02/27 06:56:35;;;;;;;3.13;2.93;;;2.80;96.20;;;;;;4995211;28;20190;-74
2022/02/27 06:59:01;;;;;;;6.33;2.83;;;2.80;96.40;;;;;;4994442;28;20181;-73
2022/02/27 07:01:26;;;;;;;4.63;3.20;;;2.80;96.40;;;;;;4995315;28;20182;-73
2022/02/27 07:03:52;;;;;;;5.77;3.23;;;2.80;96.40;;;;;;4995527;28;20327;-72
2022/02/27 07:06:18;;;;;;;3.40;3.10;;;2.80;96.20;;;;;;4996310;28;20228;-73
2022/02/27 07:08:43;;;;;;;2.63;2.40;;;2.80;96.40;;;;;;4991942;28;20192;-73
2022/02/27 07:11:09;;;;;;;3.50;3.17;;;2.80;96.20;;;;;;4996868;28;20573;-74
2022/02/27 07:13:35;;;;;;;2.73;2.53;;;2.80;96.30;;;;;;4999243;28;20714;-73
2022/02/27 07:16:00;;;;;;;3.50;3.03;;;2.90;96.30;;;;;;4996646;28;20190;-75
2022/02/27 07:18:26;;;;;;;4.83;3.17;;;2.80;96.40;;;;;;4998588;28;20195;-73
2022/02/27 07:20:52;;;;;;;3.60;2.67;;;2.80;96.50;;;;;;4995102;28;20196;-74
2022/02/27 07:23:17;;;;;;;3.90;2.60;;;2.80;96.40;;;;;;4995849;28;20185;-75
2022/02/27 07:25:43;;;;;;;2.83;2.53;;;2.90;96.50;;;;;;4997804;28;20283;-76
2022/02/27 07:28:09;;;;;;;3.63;3.33;;;2.90;96.30;;;;;;4996515;28;20188;-74
2022/02/27 07:30:36;;;;;;;2.80;2.60;;;2.90;96.50;;;;;;4998799;28;20195;-77
2022/02/27 07:33:02;;;;;;;3.53;3.23;;;2.90;96.50;;;;;;4999827;28;20185;-75
2022/02/27 07:35:28;;;;;;;3.27;2.93;;;2.90;96.30;;;;;;4996946;28;20192;-75
2022/02/27 07:37:54;;;;;;;5.03;3.30;;;3.00;96.40;;;;;;4995788;28;20573;-76
2022/02/27 07:40:19;;;;;;;2.90;2.70;;;2.90;96.70;;;;;;4996543;28;20189;-77
2022/02/27 07:42:45;;;;;;;8.43;3.70;;;2.90;96.70;;;;;;4996389;28;20184;-77
2022/02/27 07:45:12;;;;;;;2.97;2.67;;;2.90;96.70;;;;;;4991066;28;20225;-76
2022/02/27 07:47:38;;;;;;;4.03;3.03;;;2.90;96.60;;;;;;4994127;28;22166;-77
2022/02/27 07:50:04;;;;;;;2.83;2.67;;;2.90;96.60;;;;;;4995443;28;20184;-77
2022/02/27 07:52:30;;;;;;;4.40;3.10;;;2.90;96.70;;;;;;4995394;28;20259;-77
2022/02/27 07:54:55;;;;;;;4.00;2.93;;;2.90;96.70;;;;;;4992721;28;20224;-77
2022/02/27 07:57:21;;;;;;;5.97;3.67;;;2.90;96.60;;;;;;4994939;28;20231;-78
2022/02/27 07:59:47;;;;;;;4.10;3.00;;;3.00;96.30;;;;;;4992018;28;20188;-77
2022/02/27 08:02:12;;;;;;;6.80;2.87;;;3.00;96.60;;;;;;4993138;28;20189;-78
2022/02/27 08:04:38;;;;;;;3.83;3.20;;;2.90;96.80;;;;;;4995718;28;20217;-78
2022/02/27 08:07:04;;;;;;;3.07;2.77;;;2.90;96.90;;;;;;4992855;28;20231;-78
2022/02/27 08:09:29;;;;;;;2.43;2.33;;;3.00;96.80;;;;;;4999182;28;20244;-78
2022/02/27 08:11:55;;;;;;;2.70;2.13;;;3.00;97.00;;;;;;4996104;28;20177;-78
2022/02/27 08:14:21;;;;;;;2.30;2.17;;;3.00;96.90;;;;;;4994710;28;20723;-78
2022/02/27 08:16:46;;;;;;;3.93;3.47;;;3.00;96.70;;;;;;4992505;28;20200;-78
2022/02/27 08:19:12;;;;;;;3.87;2.37;;;3.00;96.60;;;;;;4992854;28;20185;-78
2022/02/27 08:21:38;;;;;;;3.33;3.03;;;3.00;96.60;;;;;;4994525;28;20248;-78
2022/02/27 08:24:06;;;;;;;4.83;2.77;;;2.90;96.80;;;;;;4996208;28;20191;-76
2022/02/27 08:26:31;;;;;;;3.30;2.60;;;3.00;96.70;;;;;;5000962;28;20279;-75
2022/02/27 08:28:59;;;;;;;2.47;2.33;;;3.00;96.90;;;;;;4999848;28;20186;-76
2022/02/27 08:31:24;;;;;;;5.33;2.87;;;3.10;96.70;;;;;;4996529;28;20216;-76
2022/02/27 08:33:50;;;;;;;2.10;2.00;;;3.10;96.90;;;;;;4997146;28;20181;-77
2022/02/27 08:36:17;;;;;;;2.47;2.30;;;3.10;96.90;;;;;;4995687;28;20197;-76
2022/02/27 08:38:43;;;;;;;3.77;2.37;;;3.10;96.70;;;;;;4997925;28;20183;-77
2022/02/27 08:41:10;;;;;;;2.97;2.77;;;3.10;96.80;;;;;;4996434;28;20598;-77
2022/02/27 08:43:35;;;;;;;5.57;2.90;;;3.10;96.70;;;;;;4998435;28;20181;-75
2022/02/27 08:46:01;;;;;;;2.17;1.97;;;3.10;96.80;;;;;;4994686;28;20229;-78
2022/02/27 08:48:28;;;;;;;3.03;2.20;;;3.10;96.90;;;;;;4994728;28;20623;-79
2022/02/27 08:50:54;;;;;;;2.27;2.17;;;3.10;97.00;;;;;;4998498;28;20243;-78
2022/02/27 08:53:20;;;;;;;2.80;2.60;;;3.10;96.90;;;;;;4998769;28;20723;-78
2022/02/27 08:55:46;;;;;;;3.37;3.07;;;3.10;97.00;;;;;;4992738;28;20208;-78
2022/02/27 08:58:12;;;;;;;3.73;2.67;;;3.10;97.20;;;;;;4994238;28;20182;-78
2022/02/27 09:00:37;;;;;;;3.10;2.80;;;3.10;97.30;;;;;;4995981;28;20189;-78
2022/02/27 09:03:04;;;;;;;3.00;2.30;;;3.00;97.20;;;;;;4997921;28;20177;-78
2022/02/27 09:05:30;;;;;;;2.90;2.70;;;3.00;97.20;;;;;;5001821;28;20221;-77
2022/02/27 09:07:56;;;;;;;1.90;1.80;;;3.00;97.20;;;;;;4995243;28;20184;-78
2022/02/27 09:10:22;;;;;;;2.13;2.07;;;3.00;97.20;;;;;;4991490;28;20209;-78
2022/02/27 09:12:48;;;;;;;2.97;2.77;;;3.00;97.40;;;;;;4996644;28;20185;-77
2022/02/27 09:15:15;;;;;;;2.47;2.27;;;3.00;97.50;;;;;;4993749;28;20666;-78
2022/02/27 09:17:41;;;;;;;2.13;2.00;;;3.00;97.40;;;;;;4996621;28;20208;-77
2022/02/27 09:20:08;;;;;;;1.70;1.70;;;3.00;97.30;;;;;;4992955;28;20189;-79
2022/02/27 09:22:34;;;;;;;1.50;1.50;;;3.00;97.30;;;;;;4995239;28;20231;-78
2022/02/27 09:25:00;;;;;;;2.13;2.03;;;3.00;97.50;;;;;;4995566;28;20217;-79
2022/02/27 09:27:26;;;;;;;2.10;2.00;;;3.10;97.60;;;;;;5003709;28;20268;-78
2022/02/27 09:29:53;;;;;;;2.37;2.27;;;3.10;97.60;;;;;;4995173;28;20181;-78
2022/02/27 09:32:19;;;;;;;1.53;1.43;;;3.10;97.70;;;;;;4992079;28;20300;-78
2022/02/27 09:34:45;;;;;;;1.47;1.37;;;3.20;97.40;;;;;;4994700;28;20902;-79
2022/02/27 09:37:11;;;;;;;1.87;1.77;;;3.20;97.30;;;;;;4996312;28;20188;-79
2022/02/27 09:39:37;;;;;;;1.93;1.60;;;3.30;97.10;;;;;;4993854;28;20217;-79
2022/02/27 09:42:04;;;;;;;1.97;1.87;;;3.30;97.10;;;;;;4996325;28;20523;-79
2022/02/27 09:44:39;;;;;;;1.80;1.70;;;3.40;97.00;;;;;;4992485;28;20234;-79
2022/02/27 09:47:07;;;;;;;1.73;1.47;;;3.40;96.90;;;;;;4994844;28;20193;-78
2022/02/27 09:49:33;;;;;;;1.60;1.57;;;3.30;96.80;;;;;;4993187;28;20190;-78
2022/02/27 09:51:59;;;;;;;1.57;1.57;;;3.40;96.80;;;;;;4998612;28;20246;-78
2022/02/27 09:54:26;;;;;;;1.43;1.43;;;3.40;96.90;;;;;;4995974;28;20628;-78
2022/02/27 09:56:52;;;;;;;1.17;1.17;;;3.40;96.90;;;;;;4994863;28;20201;-78
2022/02/27 09:59:19;;;;;;;1.77;1.67;;;3.40;96.90;;;;;;4991981;28;20205;-77
2022/02/27 10:02:04;;;;;;;1.10;1.10;;;3.40;96.90;;;;;;4998363;28;20212;-78
2022/02/27 10:04:40;;;;;;;1.20;1.20;;;3.40;96.90;;;;;;4995036;28;20184;-78
2022/02/27 10:07:19;;;;;;;1.87;1.80;;;3.30;97.10;;;;;;4995729;28;20351;-78
2022/02/27 10:09:47;;;;;;;2.60;1.77;;;3.30;97.20;;;;;;4998447;28;20192;-78
2022/02/27 10:12:15;;;;;;;1.93;1.80;;;3.30;97.10;;;;;;4994279;28;20177;-78
2022/02/27 10:14:41;;;;;;;3.30;1.50;;;3.30;97.30;;;;;;4994742;28;20181;-78
2022/02/27 10:17:07;;;;;;;2.00;1.23;;;3.30;97.40;;;;;;4991629;28;20189;-78
2022/02/27 10:19:40;;;;;;;1.40;1.30;;;3.30;97.30;;;;;;4991707;28;20663;-78
2022/02/27 10:22:07;;;;;;;1.20;1.07;;;3.30;97.50;;;;;;4993481;28;20185;-78
2022/02/27 10:24:35;;;;;;;1.40;1.40;;;3.20;97.60;;;;;;4993153;28;20192;-78
2022/02/27 10:27:10;;;;;;;1.73;1.43;;;3.30;97.60;;;;;;4996083;28;20292;-78
2022/02/27 10:29:36;;;;;;;3.67;1.20;;;3.30;97.60;;;;;;4997731;28;20686;-78
2022/02/27 10:32:03;;;;;;;2.13;1.60;;;3.40;97.80;;;;;;4993191;28;20319;-78
2022/02/27 10:34:36;;;;;;;1.73;1.63;;;3.40;97.70;;;;;;4993271;28;20216;-78
2022/02/27 10:37:18;;;;;;;0.87;0.87;;;3.40;97.50;;;;;;4996666;28;20634;-78
2022/02/27 10:39:46;;;;;;;1.00;1.00;;;3.50;97.40;;;;;;4994890;28;20208;-78
2022/02/27 10:42:30;;;;;;;0.93;0.93;;;3.50;97.40;;;;;;4995953;28;20180;-77
2022/02/27 10:45:01;;;;;;;1.57;1.10;;;3.60;97.30;;;;;;4991777;28;20193;-78
2022/02/27 10:47:30;;;;;;;1.67;1.57;;;3.60;97.10;;;;;;4996722;28;20193;-78
2022/02/27 10:49:59;;;;;;;1.50;1.40;;;3.60;96.90;;;;;;4994093;28;20269;-78
2022/02/27 10:52:29;;;;;;;1.03;1.03;;;3.60;96.90;;;;;;4991780;28;20181;-79
2022/02/27 10:54:57;;;;;;;2.03;1.57;;;3.60;96.90;;;;;;4989416;28;20285;-78
2022/02/27 10:57:32;;;;;;;1.20;1.20;;;3.60;96.90;;;;;;4992998;28;20185;-77
2022/02/27 11:00:21;;;;;;;1.53;1.23;;;3.50;96.50;;;;;;4991361;28;20200;-78
2022/02/27 11:02:53;;;;;;;3.37;1.37;;;3.50;96.60;;;;;;4990794;28;20188;-78
2022/02/27 11:05:21;;;;;;;1.60;1.50;;;3.60;96.70;;;;;;4992996;28;20703;-78
2022/02/27 11:07:51;;;;;;;1.83;1.73;;;3.50;96.60;;;;;;4986967;28;20231;-77
2022/02/27 11:10:19;;;;;;;0.90;0.90;;;3.50;96.60;;;;;;4991340;28;20623;-78
2022/02/27 11:12:45;;;;;;;1.83;1.73;;;3.40;96.60;;;;;;4992386;28;20208;-76
2022/02/27 11:15:15;;;;;;;1.37;1.27;;;3.40;96.80;;;;;;4991722;28;20243;-74
2022/02/27 11:17:42;;;;;;;1.90;1.20;;;3.30;96.90;;;;;;4996385;28;20204;-77
2022/02/27 11:20:10;;;;;;;1.53;1.43;;;3.30;96.90;;;;;;4996697;28;20235;-74
2022/02/27 11:22:36;;;;;;;1.93;1.83;;;3.20;96.80;;;;;;5001543;28;20258;-76
2022/02/27 11:25:08;;;;;;;1.20;1.20;;;3.20;96.60;;;;;;4992964;28;20213;-77
2022/02/27 11:27:36;;;;;;;1.10;1.10;;;3.10;96.60;;;;;;4996603;28;20184;-76
2022/02/27 11:30:03;;;;;;;1.80;1.53;;;3.10;96.80;;;;;;4996118;28;20186;-75
2022/02/27 11:32:28;;;;;;;1.70;1.60;;;3.00;96.80;;;;;;4994812;28;20241;-73
2022/02/27 11:34:54;;;;;;;1.50;1.40;;;2.90;97.10;;;;;;4993746;28;20675;-72
2022/02/27 11:37:49;;;;;;;1.37;1.10;;;2.90;97.40;;;;;;4996500;28;20730;-74
2022/02/27 11:40:28;;;;;;;1.47;1.30;;;2.80;97.50;;;;;;4992612;28;20268;-74
2022/02/27 11:42:57;;;;;;;1.47;1.43;;;2.80;97.70;;;;;;4996846;28;20243;-73
2022/02/27 11:45:32;;;;;;;1.10;1.10;;;2.70;98.00;;;;;;4993544;28;20231;-72
2022/02/27 11:47:58;;;;;;;1.30;1.30;;;2.70;98.00;;;;;;4992729;28;20552;-72
2022/02/27 11:50:30;;;;;;;1.37;1.20;;;2.70;98.00;;;;;;4994636;28;20181;-73
2022/02/27 11:52:56;;;;;;;2.00;1.70;;;2.70;97.90;;;;;;4993462;28;20188;-74
2022/02/27 11:55:45;;;;;;;1.17;1.07;;;2.60;97.90;;;;;;4992284;28;20818;-76
2022/02/27 11:58:29;;;;;;;1.47;1.37;;;2.50;97.90;;;;;;4992121;28;20189;-75
2022/02/27 12:01:02;;;;;;;1.30;1.30;;;2.50;97.90;;;;;;4998492;28;20201;-73
2022/02/27 12:03:31;;;;;;;2.80;1.47;;;2.60;97.90;;;;;;4997026;28;20184;-73
2022/02/27 12:05:57;;;;;;;1.40;1.20;;;2.60;97.80;;;;;;4998837;28;20247;-76
2022/02/27 12:08:53;;;;;;;2.23;1.07;;;2.60;97.70;;;;;;4998425;28;20280;-75
2022/02/27 12:11:25;;;;;;;1.80;1.73;;;2.60;97.30;;;;;;4998009;28;20189;-75
2022/02/27 12:13:59;;;;;;;1.00;1.00;;;2.70;97.30;;;;;;4997492;28;20196;-75
2022/02/27 12:16:43;;;;;;;1.50;1.40;;;2.70;97.50;;;;;;4998259;28;20830;-75
2022/02/27 12:19:26;;;;;;;1.20;1.20;;;2.80;97.40;;;;;;5000182;28;20180;-76
2022/02/27 12:21:57;;;;;;;1.97;1.87;;;2.80;97.20;;;;;;4998872;28;20268;-76
2022/02/27 12:24:30;;;;;;;1.83;1.73;;;2.90;97.20;;;;;;5001386;28;20181;-77
2022/02/27 12:26:57;;;;;;;1.50;1.40;;;2.90;97.10;;;;;;5001488;28;20245;-77
2022/02/27 12:29:34;;;;;;;2.33;1.77;;;2.90;96.80;;;;;;4996847;28;20181;-77
2022/02/27 12:32:07;;;;;;;1.00;1.00;;;2.90;96.70;;;;;;4999192;28;20672;-76
2022/02/27 12:34:35;;;;;;;2.23;1.93;;;2.90;96.60;;;;;;5000694;28;20203;-75
2022/02/27 12:37:02;;;;;;;1.87;1.77;;;2.90;96.60;;;;;;4995679;28;20595;-77
2022/02/27 12:39:36;;;;;;;1.93;1.80;;;2.80;96.90;;;;;;4996647;28;20212;-76
2022/02/27 12:42:07;;;;;;;1.60;1.60;;;2.80;96.80;;;;;;4997549;28;20704;-75
2022/02/27 12:44:48;;;;;;;1.20;1.20;;;2.80;96.80;;;;;;4993022;28;20238;-75
2022/02/27 12:47:16;;;;;;;1.73;1.47;;;2.70;96.70;;;;;;4999808;28;20592;-76
2022/02/27 12:52:37;;;;;;;0.93;0.93;;;2.70;96.80;;;;;;4997909;28;20686;-75
2022/02/27 12:55:05;;;;;;;0.70;0.70;;;2.70;96.80;;;;;;4995888;28;20221;-77
2022/02/27 12:57:31;;;;;;;1.17;1.13;;;2.70;97.00;;;;;;4999019;28;20185;-76
2022/02/27 12:59:57;;;;;;;1.10;1.10;;;2.70;97.10;;;;;;4996489;28;20240;-76